Aviation Digital Data Service (ADDS)

Output produced by TAFs form (1822 UTC 02 August 2015)
found at http://www.aviationweather.gov/adds/tafs/
 
KBJC 021747Z VRB04KT 50SM SCT120 BKN200 30/10 3012
KBJC 021722Z 0218/0318 VRB06KT P6SM FEW090 BKN150 
     FM022100 08007KT P6SM VCSH SCT080 BKN120 
     TEMPO 0222/0301 07015G25KT -SHRA BKN080 
     FM030200 17012KT P6SM SCT080 BKN120 
     FM030500 23008KT P6SM FEW090 SCT140 BKN200 
     FM031000 28011KT P6SM SCT120 BKN150 
     FM031700 24012KT P6SM VCSH SCT090 BKN120